sensor_id;sensor_type;location;lat;lon;timestamp;pressure;altitude;pressure_sealevel;temperature;humidity
11041;BME280;5573;49.592;8.662;2023-02-15T00:01:42;101357.81;;;0.95;100.00
11041;BME280;5573;49.592;8.662;2023-02-15T00:04:12;101360.53;;;1.00;100.00
11041;BME280;5573;49.592;8.662;2023-02-15T00:06:42;101327.84;;;0.76;100.00
11041;BME280;5573;49.592;8.662;2023-02-15T00:09:10;101352.50;;;0.79;100.00
11041;BME280;5573;49.592;8.662;2023-02-15T00:11:38;101350.53;;;0.90;100.00
11041;BME280;5573;49.592;8.662;2023-02-15T00:14:19;101351.88;;;0.98;100.00
11041;BME280;5573;49.592;8.662;2023-02-15T00:16:48;101340.00;;;0.84;100.00
11041;BME280;5573;49.592;8.662;2023-02-15T00:19:18;101341.88;;;0.88;100.00
11041;BME280;5573;49.592;8.662;2023-02-15T00:21:48;101330.50;;;0.91;100.00
11041;BME280;5573;49.592;8.662;2023-02-15T00:24:17;101346.19;;;0.94;100.00
11041;BME280;5573;49.592;8.662;2023-02-15T00:26:46;101345.66;;;0.92;100.00
11041;BME280;5573;49.592;8.662;2023-02-15T00:29:16;101327.00;;;0.86;100.00
11041;BME280;5573;49.592;8.662;2023-02-15T00:31:44;101344.91;;;0.81;100.00
11041;BME280;5573;49.592;8.662;2023-02-15T00:34:13;101340.31;;;0.77;100.00
11041;BME280;5573;49.592;8.662;2023-02-15T00:36:42;101341.97;;;0.73;100.00
11041;BME280;5573;49.592;8.662;2023-02-15T00:39:12;101329.53;;;0.72;100.00
11041;BME280;5573;49.592;8.662;2023-02-15T00:41:40;101340.88;;;0.74;100.00
11041;BME280;5573;49.592;8.662;2023-02-15T00:44:08;101334.94;;;0.72;100.00
11041;BME280;5573;49.592;8.662;2023-02-15T00:46:36;101333.03;;;0.72;100.00
11041;BME280;5573;49.592;8.662;2023-02-15T00:49:04;101329.00;;;0.70;100.00
11041;BME280;5573;49.592;8.662;2023-02-15T00:51:32;101330.84;;;0.74;100.00
11041;BME280;5573;49.592;8.662;2023-02-15T00:54:00;101340.34;;;0.67;100.00
11041;BME280;5573;49.592;8.662;2023-02-15T00:56:30;101335.97;;;0.81;100.00
11041;BME280;5573;49.592;8.662;2023-02-15T00:58:57;101343.25;;;0.91;100.00
11041;BME280;5573;49.592;8.662;2023-02-15T01:01:26;101339.22;;;0.83;100.00
11041;BME280;5573;49.592;8.662;2023-02-15T01:03:53;101329.75;;;0.75;100.00
11041;BME280;5573;49.592;8.662;2023-02-15T01:06:21;101335.47;;;0.74;100.00
11041;BME280;5573;49.592;8.662;2023-02-15T01:08:49;101331.91;;;0.78;100.00
11041;BME280;5573;49.592;8.662;2023-02-15T01:11:19;101322.53;;;0.55;100.00
11041;BME280;5573;49.592;8.662;2023-02-15T01:14:10;101327.97;;;0.50;100.00
11041;BME280;5573;49.592;8.662;2023-02-15T01:16:38;101326.88;;;0.51;100.00
11041;BME280;5573;49.592;8.662;2023-02-15T01:19:05;101329.53;;;0.67;100.00
11041;BME280;5573;49.592;8.662;2023-02-15T01:21:33;101320.16;;;0.38;100.00
11041;BME280;5573;49.592;8.662;2023-02-15T01:24:02;101319.63;;;0.31;100.00
11041;BME280;5573;49.592;8.662;2023-02-15T01:26:30;101323.97;;;0.27;100.00
11041;BME280;5573;49.592;8.662;2023-02-15T01:28:58;101332.09;;;0.27;100.00
11041;BME280;5573;49.592;8.662;2023-02-15T01:31:27;101332.94;;;0.23;100.00
11041;BME280;5573;49.592;8.662;2023-02-15T01:33:54;101324.28;;;0.26;100.00
11041;BME280;5573;49.592;8.662;2023-02-15T01:36:22;101321.59;;;0.15;100.00
11041;BME280;5573;49.592;8.662;2023-02-15T01:38:51;101331.03;;;0.23;100.00
11041;BME280;5573;49.592;8.662;2023-02-15T01:41:18;101320.75;;;0.20;100.00
11041;BME280;5573;49.592;8.662;2023-02-15T01:43:55;101307.53;;;0.13;100.00
11041;BME280;5573;49.592;8.662;2023-02-15T01:46:29;101310.75;;;0.10;100.00
11041;BME280;5573;49.592;8.662;2023-02-15T01:49:05;101308.88;;;0.11;100.00
11041;BME280;5573;49.592;8.662;2023-02-15T01:51:37;101305.66;;;0.09;100.00
11041;BME280;5573;49.592;8.662;2023-02-15T01:54:10;101305.63;;;0.04;100.00
11041;BME280;5573;49.592;8.662;2023-02-15T01:56:39;101304.84;;;-0.02;100.00
11041;BME280;5573;49.592;8.662;2023-02-15T01:59:11;101311.31;;;0.07;100.00
11041;BME280;5573;49.592;8.662;2023-02-15T02:01:43;101308.59;;;0.12;100.00
11041;BME280;5573;49.592;8.662;2023-02-15T02:04:15;101302.09;;;0.08;100.00
11041;BME280;5573;49.592;8.662;2023-02-15T02:06:46;101313.44;;;0.26;100.00
11041;BME280;5573;49.592;8.662;2023-02-15T02:09:15;101311.81;;;0.30;100.00
11041;BME280;5573;49.592;8.662;2023-02-15T02:11:45;101302.81;;;0.39;100.00
11041;BME280;5573;49.592;8.662;2023-02-15T02:14:14;101306.38;;;0.35;100.00
11041;BME280;5573;49.592;8.662;2023-02-15T02:16:51;101295.56;;;0.30;100.00
11041;BME280;5573;49.592;8.662;2023-02-15T02:19:45;101298.78;;;0.37;100.00
11041;BME280;5573;49.592;8.662;2023-02-15T02:22:41;101293.88;;;0.44;100.00
11041;BME280;5573;49.592;8.662;2023-02-15T02:28:41;101295.47;;;0.50;100.00
11041;BME280;5573;49.592;8.662;2023-02-15T02:31:29;101290.06;;;0.50;100.00
11041;BME280;5573;49.592;8.662;2023-02-15T02:34:03;101284.38;;;0.52;100.00
11041;BME280;5573;49.592;8.662;2023-02-15T02:36:37;101284.38;;;0.52;100.00
11041;BME280;5573;49.592;8.662;2023-02-15T02:39:23;101284.63;;;0.55;100.00
11041;BME280;5573;49.592;8.662;2023-02-15T02:41:59;101281.41;;;0.53;100.00
11041;BME280;5573;49.592;8.662;2023-02-15T02:44:34;101279.72;;;0.63;100.00
11041;BME280;5573;49.592;8.662;2023-02-15T02:47:09;101275.66;;;0.60;100.00
11041;BME280;5573;49.592;8.662;2023-02-15T02:49:42;101274.34;;;0.57;100.00
11041;BME280;5573;49.592;8.662;2023-02-15T02:52:35;101271.06;;;0.60;100.00
11041;BME280;5573;49.592;8.662;2023-02-15T02:55:05;101262.13;;;0.60;100.00
11041;BME280;5573;49.592;8.662;2023-02-15T02:57:37;101268.44;;;0.45;100.00
11041;BME280;5573;49.592;8.662;2023-02-15T03:00:09;101258.84;;;0.63;100.00
11041;BME280;5573;49.592;8.662;2023-02-15T03:02:39;101269.75;;;0.48;100.00
11041;BME280;5573;49.592;8.662;2023-02-15T03:05:15;101272.69;;;0.56;100.00
11041;BME280;5573;49.592;8.662;2023-02-15T03:07:47;101271.94;;;0.51;100.00
11041;BME280;5573;49.592;8.662;2023-02-15T03:10:19;101261.91;;;0.51;100.00
11041;BME280;5573;49.592;8.662;2023-02-15T03:12:50;101261.09;;;0.51;100.00
11041;BME280;5573;49.592;8.662;2023-02-15T03:15:20;101257.56;;;0.50;100.00
11041;BME280;5573;49.592;8.662;2023-02-15T03:17:52;101242.97;;;0.46;100.00
11041;BME280;5573;49.592;8.662;2023-02-15T03:20:27;101248.41;;;0.41;100.00
11041;BME280;5573;49.592;8.662;2023-02-15T03:23:03;101256.50;;;0.46;100.00
11041;BME280;5573;49.592;8.662;2023-02-15T03:25:36;101266.22;;;0.57;100.00
11041;BME280;5573;49.592;8.662;2023-02-15T03:28:08;101265.44;;;0.47;100.00
11041;BME280;5573;49.592;8.662;2023-02-15T03:30:38;101267.31;;;0.46;100.00
11041;BME280;5573;49.592;8.662;2023-02-15T03:33:08;101259.78;;;0.43;100.00
11041;BME280;5573;49.592;8.662;2023-02-15T03:35:43;101260.25;;;0.55;100.00
11041;BME280;5573;49.592;8.662;2023-02-15T03:38:17;101261.69;;;0.43;100.00
11041;BME280;5573;49.592;8.662;2023-02-15T03:40:48;101262.75;;;0.47;100.00
11041;BME280;5573;49.592;8.662;2023-02-15T03:43:39;101276.03;;;0.38;100.00
11041;BME280;5573;49.592;8.662;2023-02-15T03:46:13;101268.66;;;0.54;100.00
11041;BME280;5573;49.592;8.662;2023-02-15T03:48:46;101278.72;;;0.43;100.00
11041;BME280;5573;49.592;8.662;2023-02-15T03:51:18;101281.97;;;0.40;100.00
11041;BME280;5573;49.592;8.662;2023-02-15T03:54:05;101277.69;;;0.29;100.00
11041;BME280;5573;49.592;8.662;2023-02-15T03:56:36;101267.91;;;0.38;100.00
11041;BME280;5573;49.592;8.662;2023-02-15T03:59:04;101269.81;;;0.43;100.00
11041;BME280;5573;49.592;8.662;2023-02-15T04:01:57;101279.53;;;0.49;100.00
11041;BME280;5573;49.592;8.662;2023-02-15T04:04:32;101263.28;;;0.49;100.00
11041;BME280;5573;49.592;8.662;2023-02-15T04:07:04;101262.75;;;0.47;100.00
11041;BME280;5573;49.592;8.662;2023-02-15T04:09:32;101244.59;;;0.47;100.00
11041;BME280;5573;49.592;8.662;2023-02-15T04:12:17;101262.09;;;0.65;100.00
11041;BME280;5573;49.592;8.662;2023-02-15T04:14:45;101261.31;;;0.59;100.00
11041;BME280;5573;49.592;8.662;2023-02-15T04:17:30;101258.13;;;0.47;100.00
11041;BME280;5573;49.592;8.662;2023-02-15T04:19:58;101258.94;;;0.53;100.00
11041;BME280;5573;49.592;8.662;2023-02-15T04:22:45;101254.91;;;0.40;100.00
11041;BME280;5573;49.592;8.662;2023-02-15T04:25:30;101251.19;;;0.26;100.00
11041;BME280;5573;49.592;8.662;2023-02-15T04:27:58;101250.63;;;0.34;100.00
11041;BME280;5573;49.592;8.662;2023-02-15T04:30:25;101257.09;;;0.33;100.00
11041;BME280;5573;49.592;8.662;2023-02-15T04:32:54;101256.88;;;0.24;100.00
11041;BME280;5573;49.592;8.662;2023-02-15T04:35:23;101257.06;;;0.38;100.00
11041;BME280;5573;49.592;8.662;2023-02-15T04:37:53;101251.66;;;0.38;100.00
11041;BME280;5573;49.592;8.662;2023-02-15T04:40:22;101251.44;;;0.29;100.00
11041;BME280;5573;49.592;8.662;2023-02-15T04:42:50;101247.13;;;0.28;100.00
11041;BME280;5573;49.592;8.662;2023-02-15T04:45:17;101246.81;;;0.35;100.00
11041;BME280;5573;49.592;8.662;2023-02-15T04:47:45;101241.66;;;0.38;100.00
11041;BME280;5573;49.592;8.662;2023-02-15T04:50:13;101240.88;;;0.33;100.00
11041;BME280;5573;49.592;8.662;2023-02-15T04:52:41;101233.84;;;0.32;100.00
11041;BME280;5573;49.592;8.662;2023-02-15T04:55:10;101236.03;;;0.30;100.00
11041;BME280;5573;49.592;8.662;2023-02-15T04:57:37;101231.44;;;0.20;100.00
11041;BME280;5573;49.592;8.662;2023-02-15T05:00:06;101235.75;;;0.21;100.00
11041;BME280;5573;49.592;8.662;2023-02-15T05:02:35;101242.00;;;0.16;100.00
11041;BME280;5573;49.592;8.662;2023-02-15T05:05:03;101233.63;;;0.18;100.00
11041;BME280;5573;49.592;8.662;2023-02-15T05:07:31;101229.78;;;0.29;100.00
11041;BME280;5573;49.592;8.662;2023-02-15T05:09:58;101235.22;;;0.24;100.00
11041;BME280;5573;49.592;8.662;2023-02-15T05:12:27;101226.59;;;0.12;100.00
11041;BME280;5573;49.592;8.662;2023-02-15T05:14:55;101225.78;;;0.16;100.00
11041;BME280;5573;49.592;8.662;2023-02-15T05:17:23;101223.06;;;0.16;100.00
11041;BME280;5573;49.592;8.662;2023-02-15T05:19:51;101229.81;;;0.24;100.00
11041;BME280;5573;49.592;8.662;2023-02-15T05:22:18;101227.38;;;0.23;100.00
11041;BME280;5573;49.592;8.662;2023-02-15T05:24:46;101233.56;;;0.33;100.00
11041;BME280;5573;49.592;8.662;2023-02-15T05:27:33;101226.25;;;0.34;100.00
11041;BME280;5573;49.592;8.662;2023-02-15T05:30:18;101230.78;;;0.44;100.00
11041;BME280;5573;49.592;8.662;2023-02-15T05:32:46;101237.06;;;0.39;100.00
11041;BME280;5573;49.592;8.662;2023-02-15T05:35:15;101229.50;;;0.36;100.00
11041;BME280;5573;49.592;8.662;2023-02-15T05:37:43;101229.72;;;0.45;100.00
11041;BME280;5573;49.592;8.662;2023-02-15T05:40:11;101237.59;;;0.41;100.00
11041;BME280;5573;49.592;8.662;2023-02-15T05:42:40;101231.94;;;0.27;100.00
11041;BME280;5573;49.592;8.662;2023-02-15T05:45:08;101241.41;;;0.35;100.00
11041;BME280;5573;49.592;8.662;2023-02-15T05:47:36;101240.59;;;0.34;100.00
11041;BME280;5573;49.592;8.662;2023-02-15T05:50:05;101236.81;;;0.25;100.00
11041;BME280;5573;49.592;8.662;2023-02-15T05:52:33;101239.22;;;0.37;100.00
11041;BME280;5573;49.592;8.662;2023-02-15T05:55:00;101247.03;;;0.44;100.00
11041;BME280;5573;49.592;8.662;2023-02-15T05:57:29;101244.91;;;0.40;100.00
11041;BME280;5573;49.592;8.662;2023-02-15T05:59:58;101242.47;;;0.39;100.00
11041;BME280;5573;49.592;8.662;2023-02-15T06:02:25;101251.34;;;0.50;100.00
11041;BME280;5573;49.592;8.662;2023-02-15T06:04:53;101242.66;;;0.58;100.00
11041;BME280;5573;49.592;8.662;2023-02-15T06:07:20;101254.31;;;0.48;100.00
11041;BME280;5573;49.592;8.662;2023-02-15T06:09:48;101246.72;;;0.55;100.00
11041;BME280;5573;49.592;8.662;2023-02-15T06:12:16;101255.38;;;0.57;100.00
11041;BME280;5573;49.592;8.662;2023-02-15T06:14:43;101246.78;;;0.45;100.00
11041;BME280;5573;49.592;8.662;2023-02-15T06:17:13;101251.91;;;0.42;100.00
11041;BME280;5573;49.592;8.662;2023-02-15T06:19:40;101250.28;;;0.46;100.00
11041;BME280;5573;49.592;8.662;2023-02-15T06:22:08;101243.00;;;0.41;100.00
11041;BME280;5573;49.592;8.662;2023-02-15T06:24:36;101242.94;;;0.51;100.00
11041;BME280;5573;49.592;8.662;2023-02-15T06:27:03;101240.56;;;0.39;100.00
11041;BME280;5573;49.592;8.662;2023-02-15T06:29:31;101238.38;;;0.42;100.00
11041;BME280;5573;49.592;8.662;2023-02-15T06:31:58;101242.94;;;0.51;100.00
11041;BME280;5573;49.592;8.662;2023-02-15T06:34:28;101245.66;;;0.51;100.00
11041;BME280;5573;49.592;8.662;2023-02-15T06:36:56;101250.63;;;0.34;100.00
11041;BME280;5573;49.592;8.662;2023-02-15T06:39:23;101261.69;;;0.37;100.00
11041;BME280;5573;49.592;8.662;2023-02-15T06:41:51;101274.72;;;0.25;100.00
11041;BME280;5573;49.592;8.662;2023-02-15T06:44:19;101242.00;;;0.22;100.00
11041;BME280;5573;49.592;8.662;2023-02-15T06:46:46;101278.94;;;0.52;100.00
11041;BME280;5573;49.592;8.662;2023-02-15T06:49:14;101278.16;;;0.51;100.00
11041;BME280;5573;49.592;8.662;2023-02-15T06:51:43;101270.00;;;0.56;100.00
11041;BME280;5573;49.592;8.662;2023-02-15T06:54:11;101272.75;;;0.51;100.00
11041;BME280;5573;49.592;8.662;2023-02-15T06:56:39;101274.88;;;0.54;100.00
11041;BME280;5573;49.592;8.662;2023-02-15T06:59:06;101270.78;;;0.57;100.00
11041;BME280;5573;49.592;8.662;2023-02-15T07:01:34;101267.28;;;0.56;100.00
11041;BME280;5573;49.592;8.662;2023-02-15T07:04:03;101281.09;;;0.60;100.00
11041;BME280;5573;49.592;8.662;2023-02-15T07:06:31;101282.94;;;0.65;100.00
11041;BME280;5573;49.592;8.662;2023-02-15T07:09:00;101278.06;;;0.67;100.00
11041;BME280;5573;49.592;8.662;2023-02-15T07:11:28;101279.16;;;0.66;100.00
11041;BME280;5573;49.592;8.662;2023-02-15T07:14:14;101279.41;;;0.74;100.00
11041;BME280;5573;49.592;8.662;2023-02-15T07:16:41;101271.00;;;0.71;100.00
11041;BME280;5573;49.592;8.662;2023-02-15T07:19:09;101278.06;;;0.67;100.00
11041;BME280;5573;49.592;8.662;2023-02-15T07:21:37;101271.50;;;0.78;100.00
11041;BME280;5573;49.592;8.662;2023-02-15T07:24:06;101194.91;;;0.28;100.00
11041;BME280;5573;49.592;8.662;2023-02-15T07:26:34;101263.69;;;0.71;100.00
11041;BME280;5573;49.592;8.662;2023-02-15T07:29:02;101265.31;;;0.72;100.00
11041;BME280;5573;49.592;8.662;2023-02-15T07:31:29;101265.03;;;0.74;100.00
11041;BME280;5573;49.592;8.662;2023-02-15T07:33:57;101269.63;;;0.73;100.00
11041;BME280;5573;49.592;8.662;2023-02-15T07:36:25;101267.84;;;0.53;100.00
11041;BME280;5573;49.592;8.662;2023-02-15T07:38:52;101272.16;;;0.59;100.00
11041;BME280;5573;49.592;8.662;2023-02-15T07:41:21;101276.75;;;0.59;100.00
11041;BME280;5573;49.592;8.662;2023-02-15T07:43:49;101284.00;;;0.74;100.00
11041;BME280;5573;49.592;8.662;2023-02-15T07:46:17;101281.22;;;0.84;100.00
11041;BME280;5573;49.592;8.662;2023-02-15T07:48:47;101265.00;;;0.79;100.00
11041;BME280;5573;49.592;8.662;2023-02-15T07:51:15;101265.59;;;0.71;100.00
11041;BME280;5573;49.592;8.662;2023-02-15T07:53:43;101256.78;;;0.94;100.00
11041;BME280;5573;49.592;8.662;2023-02-15T07:56:12;101257.50;;;1.05;100.00
11041;BME280;5573;49.592;8.662;2023-02-15T07:58:42;101255.16;;;0.93;100.00
11041;BME280;5573;49.592;8.662;2023-02-15T08:01:20;101259.16;;;1.01;100.00
11041;BME280;5573;49.592;8.662;2023-02-15T08:03:49;101257.81;;;1.04;100.00
11041;BME280;5573;49.592;8.662;2023-02-15T08:06:17;101253.00;;;0.95;100.00
11041;BME280;5573;49.592;8.662;2023-02-15T08:08:45;101260.81;;;0.97;100.00
11041;BME280;5573;49.592;8.662;2023-02-15T08:11:19;101237.19;;;1.08;100.00
11041;BME280;5573;49.592;8.662;2023-02-15T08:13:58;101259.53;;;1.29;100.00
11041;BME280;5573;49.592;8.662;2023-02-15T08:16:29;101246.97;;;1.04;100.00
11041;BME280;5573;49.592;8.662;2023-02-15T08:18:58;101252.53;;;1.23;100.00
11041;BME280;5573;49.592;8.662;2023-02-15T08:21:27;101234.44;;;1.13;100.00
11041;BME280;5573;49.592;8.662;2023-02-15T08:23:56;101255.34;;;1.41;100.00
11041;BME280;5573;49.592;8.662;2023-02-15T08:26:25;101260.53;;;1.33;100.00
11041;BME280;5573;49.592;8.662;2023-02-15T08:28:53;101258.34;;;1.40;100.00
11041;BME280;5573;49.592;8.662;2023-02-15T08:31:23;101254.66;;;1.26;100.00
11041;BME280;5573;49.592;8.662;2023-02-15T08:33:52;101254.81;;;1.39;100.00
11041;BME280;5573;49.592;8.662;2023-02-15T08:36:22;101240.31;;;1.54;100.00
11041;BME280;5573;49.592;8.662;2023-02-15T08:38:51;101238.88;;;1.62;100.00
11041;BME280;5573;49.592;8.662;2023-02-15T08:41:20;101243.22;;;1.63;100.00
11041;BME280;5573;49.592;8.662;2023-02-15T08:43:51;101241.31;;;1.63;100.00
11041;BME280;5573;49.592;8.662;2023-02-15T08:46:20;101233.03;;;1.50;100.00
11041;BME280;5573;49.592;8.662;2023-02-15T08:48:51;101236.56;;;1.50;100.00
11041;BME280;5573;49.592;8.662;2023-02-15T08:51:20;101236.69;;;1.64;100.00
11041;BME280;5573;49.592;8.662;2023-02-15T08:53:49;101239.69;;;1.62;100.00
11041;BME280;5573;49.592;8.662;2023-02-15T08:56:18;101233.88;;;1.74;100.00
11041;BME280;5573;49.592;8.662;2023-02-15T08:58:46;101235.41;;;1.86;100.00
11041;BME280;5573;49.592;8.662;2023-02-15T09:01:16;101222.63;;;1.86;100.00
11041;BME280;5573;49.592;8.662;2023-02-15T09:03:47;101225.56;;;1.66;100.00
11041;BME280;5573;49.592;8.662;2023-02-15T09:06:17;101219.50;;;1.74;100.00
11041;BME280;5573;49.592;8.662;2023-02-15T09:08:45;101214.69;;;1.90;100.00
11041;BME280;5573;49.592;8.662;2023-02-15T09:11:14;101209.41;;;2.03;100.00
11041;BME280;5573;49.592;8.662;2023-02-15T09:13:49;101191.66;;;1.87;100.00
11041;BME280;5573;49.592;8.662;2023-02-15T09:16:19;101214.47;;;2.10;100.00
11041;BME280;5573;49.592;8.662;2023-02-15T09:18:48;101216.81;;;2.17;100.00
11041;BME280;5573;49.592;8.662;2023-02-15T09:21:19;101213.19;;;2.27;100.00
11041;BME280;5573;49.592;8.662;2023-02-15T09:23:50;101215.81;;;2.32;100.00
11041;BME280;5573;49.592;8.662;2023-02-15T09:26:20;101211.00;;;2.29;100.00
11041;BME280;5573;49.592;8.662;2023-02-15T09:28:51;101214.38;;;2.39;100.00
11041;BME280;5573;49.592;8.662;2023-02-15T09:31:24;101205.72;;;2.56;100.00
11041;BME280;5573;49.592;8.662;2023-02-15T09:33:52;101205.72;;;2.56;100.00
11041;BME280;5573;49.592;8.662;2023-02-15T09:36:23;101206.59;;;2.33;100.00
11041;BME280;5573;49.592;8.662;2023-02-15T09:38:55;101195.28;;;2.44;100.00
11041;BME280;5573;49.592;8.662;2023-02-15T09:41:41;101192.09;;;2.42;100.00
11041;BME280;5573;49.592;8.662;2023-02-15T09:44:17;101197.72;;;2.46;100.00
11041;BME280;5573;49.592;8.662;2023-02-15T09:47:03;101207.78;;;2.64;100.00
11041;BME280;5573;49.592;8.662;2023-02-15T09:49:40;101204.84;;;2.80;100.00
11041;BME280;5573;49.592;8.662;2023-02-15T09:52:32;101199.19;;;2.76;100.00
11041;BME280;5573;49.592;8.662;2023-02-15T09:55:15;101209.19;;;2.81;100.00
11041;BME280;5573;49.592;8.662;2023-02-15T09:57:54;101206.75;;;2.79;100.00
11041;BME280;5573;49.592;8.662;2023-02-15T10:00:36;101199.75;;;2.92;100.00
11041;BME280;5573;49.592;8.662;2023-02-15T10:03:19;101202.34;;;2.83;100.00
11041;BME280;5573;49.592;8.662;2023-02-15T10:06:02;101204.53;;;3.00;100.00
11041;BME280;5573;49.592;8.662;2023-02-15T10:11:45;101204.38;;;3.24;100.00
11041;BME280;5573;49.592;8.662;2023-02-15T10:14:39;101206.25;;;3.29;100.00
11041;BME280;5573;49.592;8.662;2023-02-15T10:17:19;101211.75;;;3.24;100.00
11041;BME280;5573;49.592;8.662;2023-02-15T10:20:00;101214.13;;;3.12;100.00
11041;BME280;5573;49.592;8.662;2023-02-15T10:22:40;101211.50;;;3.07;100.00
11041;BME280;5573;49.592;8.662;2023-02-15T10:25:23;101225.50;;;3.14;100.00
11041;BME280;5573;49.592;8.662;2023-02-15T10:27:58;101230.69;;;2.77;100.00
11041;BME280;5573;49.592;8.662;2023-02-15T10:30:37;101228.25;;;2.76;100.00
11041;BME280;5573;49.592;8.662;2023-02-15T10:33:16;101239.28;;;2.84;100.00
11041;BME280;5573;49.592;8.662;2023-02-15T10:35:54;101238.19;;;2.85;100.00
11041;BME280;5573;49.592;8.662;2023-02-15T10:38:33;101234.59;;;2.71;100.00
11041;BME280;5573;49.592;8.662;2023-02-15T10:41:19;101239.06;;;2.81;100.00
11041;BME280;5573;49.592;8.662;2023-02-15T10:44:05;101233.19;;;2.74;100.00
11041;BME280;5573;49.592;8.662;2023-02-15T10:46:55;101229.66;;;2.54;100.00
11041;BME280;5573;49.592;8.662;2023-02-15T10:49:39;101235.75;;;2.65;100.00
11041;BME280;5573;49.592;8.662;2023-02-15T10:52:25;101242.88;;;2.80;100.00
11041;BME280;5573;49.592;8.662;2023-02-15T10:55:04;101236.56;;;2.65;100.00
11041;BME280;5573;49.592;8.662;2023-02-15T10:57:46;101235.69;;;2.89;100.00
11041;BME280;5573;49.592;8.662;2023-02-15T11:00:18;101238.47;;;2.84;100.00
11041;BME280;5573;49.592;8.662;2023-02-15T11:03:01;101238.09;;;2.91;100.00
11041;BME280;5573;49.592;8.662;2023-02-15T11:05:40;101228.91;;;3.05;100.00
11041;BME280;5573;49.592;8.662;2023-02-15T11:08:10;101226.75;;;3.21;100.00
11041;BME280;5573;49.592;8.662;2023-02-15T11:10:39;101224.50;;;3.10;100.00
11041;BME280;5573;49.592;8.662;2023-02-15T11:13:16;101218.13;;;3.00;100.00
11041;BME280;5573;49.592;8.662;2023-02-15T11:15:46;101210.09;;;3.09;100.00
11041;BME280;5573;49.592;8.662;2023-02-15T11:18:23;101216.78;;;3.17;100.00
11041;BME280;5573;49.592;8.662;2023-02-15T11:20:55;101200.97;;;3.19;100.00
11041;BME280;5573;49.592;8.662;2023-02-15T11:23:25;101195.41;;;3.10;100.00
11041;BME280;5573;49.592;8.662;2023-02-15T11:25:56;101194.94;;;3.22;100.00
11041;BME280;5573;49.592;8.662;2023-02-15T11:28:31;101195.38;;;3.29;100.00
11041;BME280;5573;49.592;8.662;2023-02-15T11:31:10;101181.44;;;3.31;100.00
11041;BME280;5573;49.592;8.662;2023-02-15T11:33:42;101181.25;;;3.27;100.00
11041;BME280;5573;49.592;8.662;2023-02-15T11:36:15;101172.19;;;3.45;100.00
11041;BME280;5573;49.592;8.662;2023-02-15T11:38:46;101170.19;;;3.37;100.00
11041;BME280;5573;49.592;8.662;2023-02-15T11:41:19;101169.28;;;3.42;100.00
11041;BME280;5573;49.592;8.662;2023-02-15T11:43:55;101163.47;;;3.49;100.00
11041;BME280;5573;49.592;8.662;2023-02-15T11:46:25;101161.97;;;3.70;100.00
11041;BME280;5573;49.592;8.662;2023-02-15T11:48:52;101157.91;;;3.81;100.00
11041;BME280;5573;49.592;8.662;2023-02-15T11:51:22;101160.03;;;3.71;100.00
11041;BME280;5573;49.592;8.662;2023-02-15T11:53:50;101159.22;;;3.98;100.00
11041;BME280;5573;49.592;8.662;2023-02-15T11:56:21;101158.41;;;3.83;100.00
11041;BME280;5573;49.592;8.662;2023-02-15T11:58:55;101153.19;;;3.73;100.00
11041;BME280;5573;49.592;8.662;2023-02-15T12:01:28;101163.34;;;3.81;100.00
11041;BME280;5573;49.592;8.662;2023-02-15T12:03:59;101159.84;;;3.81;100.00
11041;BME280;5573;49.592;8.662;2023-02-15T12:06:33;101146.63;;;4.02;100.00
11041;BME280;5573;49.592;8.662;2023-02-15T12:09:05;101148.03;;;3.99;100.00
11041;BME280;5573;49.592;8.662;2023-02-15T12:11:36;101143.06;;;4.15;100.00
11041;BME280;5573;49.592;8.662;2023-02-15T12:14:08;101137.88;;;4.27;100.00
11041;BME280;5573;49.592;8.662;2023-02-15T12:16:45;101135.09;;;4.19;100.00
11041;BME280;5573;49.592;8.662;2023-02-15T12:19:27;101137.28;;;4.31;100.00
11041;BME280;5573;49.592;8.662;2023-02-15T12:21:57;101131.13;;;4.39;100.00
11041;BME280;5573;49.592;8.662;2023-02-15T12:24:28;101125.91;;;4.51;100.00
11041;BME280;5573;49.592;8.662;2023-02-15T12:26:58;101092.91;;;4.30;100.00
11041;BME280;5573;49.592;8.662;2023-02-15T12:29:33;101130.53;;;4.64;100.00
11041;BME280;5573;49.592;8.662;2023-02-15T12:32:03;101121.84;;;4.62;100.00
11041;BME280;5573;49.592;8.662;2023-02-15T12:34:35;101120.84;;;4.58;100.00
11041;BME280;5573;49.592;8.662;2023-02-15T12:37:11;101113.09;;;4.74;100.00
11041;BME280;5573;49.592;8.662;2023-02-15T12:39:52;101118.69;;;4.69;100.00
11041;BME280;5573;49.592;8.662;2023-02-15T12:42:20;101118.69;;;4.69;100.00
11041;BME280;5573;49.592;8.662;2023-02-15T12:44:56;101105.03;;;4.46;100.00
11041;BME280;5573;49.592;8.662;2023-02-15T12:47:25;101110.19;;;4.48;100.00
11041;BME280;5573;49.592;8.662;2023-02-15T12:50:22;101106.91;;;4.60;100.00
11041;BME280;5573;49.592;8.662;2023-02-15T12:53:06;101102.19;;;4.74;100.00
11041;BME280;5573;49.592;8.662;2023-02-15T12:55:34;101105.84;;;4.92;100.00
11041;BME280;5573;49.592;8.662;2023-02-15T12:58:08;101094.16;;;4.69;100.00
11041;BME280;5573;49.592;8.662;2023-02-15T13:00:43;101071.66;;;4.86;100.00
11041;BME280;5573;49.592;8.662;2023-02-15T13:03:17;101080.06;;;4.98;100.00
11041;BME280;5573;49.592;8.662;2023-02-15T13:05:47;101098.22;;;5.03;100.00
11041;BME280;5573;49.592;8.662;2023-02-15T13:08:19;101095.09;;;4.87;100.00
11041;BME280;5573;49.592;8.662;2023-02-15T13:10:54;101093.19;;;4.96;100.00
11041;BME280;5573;49.592;8.662;2023-02-15T13:13:24;101087.00;;;5.04;100.00
11041;BME280;5573;49.592;8.662;2023-02-15T13:15:58;101077.38;;;5.07;100.00
11041;BME280;5573;49.592;8.662;2023-02-15T13:18:31;101068.97;;;5.26;100.00
11041;BME280;5573;49.592;8.662;2023-02-15T13:21:06;101068.75;;;5.14;100.00
11041;BME280;5573;49.592;8.662;2023-02-15T13:23:37;101067.16;;;5.13;100.00
11041;BME280;5573;49.592;8.662;2023-02-15T13:26:11;101071.44;;;5.05;100.00
11041;BME280;5573;49.592;8.662;2023-02-15T13:28:43;101073.47;;;4.68;100.00
11041;BME280;5573;49.592;8.662;2023-02-15T13:31:15;101068.06;;;4.77;100.00
11041;BME280;5573;49.592;8.662;2023-02-15T13:33:46;101080.00;;;4.89;100.00